createdAt,value
2017-12-24T00:01:54.058Z,9.30
2017-12-24T00:04:20.008Z,9.30
2017-12-24T00:06:45.949Z,9.30
2017-12-24T00:09:11.916Z,9.30
2017-12-24T00:11:37.875Z,9.40
2017-12-24T00:14:03.844Z,9.40
2017-12-24T00:16:29.816Z,9.50
2017-12-24T00:18:56.539Z,9.50
2017-12-24T00:21:22.505Z,9.50
2017-12-24T00:23:49.184Z,9.50
2017-12-24T00:26:15.148Z,9.50
2017-12-24T00:28:41.112Z,9.50
2017-12-24T00:31:07.069Z,9.50
2017-12-24T00:33:33.055Z,9.60
2017-12-24T00:35:59.024Z,9.50
2017-12-24T00:38:25.692Z,9.50
2017-12-24T00:40:51.656Z,9.50
2017-12-24T00:43:17.580Z,9.60
2017-12-24T00:45:43.509Z,9.60
2017-12-24T00:48:09.480Z,9.60
2017-12-24T00:50:35.428Z,9.50
2017-12-24T00:53:01.416Z,9.50
2017-12-24T00:55:27.348Z,9.50
2017-12-24T00:57:53.276Z,9.50
2017-12-24T01:00:19.293Z,9.50
2017-12-24T01:02:45.968Z,9.60
2017-12-24T01:05:11.940Z,9.60
2017-12-24T01:07:38.612Z,9.60
2017-12-24T01:10:04.565Z,9.60
2017-12-24T01:12:31.288Z,9.50
2017-12-24T01:14:57.223Z,9.50
2017-12-24T01:17:23.156Z,9.50
2017-12-24T01:19:49.127Z,9.50
2017-12-24T01:22:15.800Z,9.50
2017-12-24T01:24:41.733Z,9.50
2017-12-24T01:27:07.709Z,9.50
2017-12-24T01:29:33.652Z,9.60
2017-12-24T01:31:59.600Z,9.50
2017-12-24T01:34:26.461Z,9.70
2017-12-24T01:36:52.420Z,9.70
2017-12-24T01:39:19.114Z,9.60
2017-12-24T01:41:45.081Z,9.60
2017-12-24T01:44:11.048Z,9.60
2017-12-24T01:46:37.719Z,9.60
2017-12-24T01:49:03.657Z,9.60
2017-12-24T01:51:29.620Z,9.60
2017-12-24T01:53:55.554Z,9.70
2017-12-24T01:56:21.524Z,9.70
2017-12-24T01:58:48.193Z,9.60
2017-12-24T02:01:14.168Z,9.60
2017-12-24T02:03:40.100Z,9.70
2017-12-24T02:06:06.046Z,9.70
2017-12-24T02:08:32.035Z,9.70
2017-12-24T02:10:57.960Z,9.70
2017-12-24T02:13:24.656Z,9.70
2017-12-24T02:15:56.462Z,9.70
2017-12-24T02:18:22.441Z,9.70
2017-12-24T02:20:48.386Z,9.70
2017-12-24T02:23:14.361Z,9.70
2017-12-24T02:25:40.312Z,9.60
2017-12-24T02:28:06.283Z,9.60
2017-12-24T02:30:33.075Z,9.70
2017-12-24T02:32:59.022Z,9.70
2017-12-24T02:35:24.989Z,9.60
2017-12-24T02:37:51.694Z,9.60
2017-12-24T02:40:17.660Z,9.60
2017-12-24T02:42:43.602Z,9.60
2017-12-24T02:45:09.578Z,9.70
2017-12-24T02:47:35.545Z,9.50
2017-12-24T02:50:01.497Z,9.50
2017-12-24T02:52:27.466Z,9.50
2017-12-24T02:54:53.429Z,9.50
2017-12-24T02:57:19.438Z,9.50
2017-12-24T02:59:45.377Z,9.40
2017-12-24T03:02:12.133Z,9.40
2017-12-24T03:04:38.118Z,9.30
2017-12-24T03:07:04.109Z,9.20
2017-12-24T03:09:30.049Z,9.30
2017-12-24T03:11:56.021Z,9.20
2017-12-24T03:14:21.962Z,9.20
2017-12-24T03:16:47.896Z,9.20
2017-12-24T03:19:13.877Z,9.20
2017-12-24T03:21:39.814Z,9.20
2017-12-24T03:24:05.804Z,9.10
2017-12-24T03:26:31.785Z,9.10
2017-12-24T03:28:57.722Z,9.20
2017-12-24T03:31:23.702Z,9.10
2017-12-24T03:33:49.721Z,9.10
2017-12-24T03:36:15.688Z,9.10
2017-12-24T03:38:41.653Z,9.10
2017-12-24T03:41:08.336Z,9.10
2017-12-24T03:43:34.324Z,9.00
2017-12-24T03:46:01.036Z,9.00
2017-12-24T03:48:26.978Z,9.00
2017-12-24T03:50:52.945Z,9.00
2017-12-24T03:53:18.894Z,9.00
2017-12-24T03:55:45.582Z,9.00
2017-12-24T03:58:11.556Z,9.00
2017-12-24T04:00:37.498Z,9.00
2017-12-24T04:03:03.463Z,8.90
2017-12-24T04:05:29.429Z,9.00
2017-12-24T04:07:55.388Z,9.00
2017-12-24T04:10:21.398Z,8.90
2017-12-24T04:12:47.349Z,8.90
2017-12-24T04:15:13.274Z,9.00
2017-12-24T04:17:39.246Z,9.00
2017-12-24T04:20:05.210Z,9.00
2017-12-24T04:22:31.917Z,9.00
2017-12-24T04:24:57.862Z,9.00
2017-12-24T04:27:23.842Z,9.00
2017-12-24T04:29:49.805Z,9.00
2017-12-24T04:32:15.776Z,9.00
2017-12-24T04:34:41.746Z,9.00
2017-12-24T04:37:07.673Z,9.00
2017-12-24T04:39:34.412Z,8.90
2017-12-24T04:42:01.127Z,8.90
2017-12-24T04:44:27.102Z,8.90
2017-12-24T04:46:53.792Z,8.90
2017-12-24T04:49:19.772Z,8.90
2017-12-24T04:51:45.709Z,8.90
2017-12-24T04:54:11.650Z,8.80
2017-12-24T04:56:37.646Z,8.90
2017-12-24T04:59:03.616Z,8.90
2017-12-24T05:01:29.586Z,8.80
2017-12-24T05:03:55.548Z,8.90
2017-12-24T05:06:21.487Z,8.80
2017-12-24T05:08:47.461Z,8.80
2017-12-24T05:11:13.396Z,8.80
2017-12-24T05:13:39.350Z,8.80
2017-12-24T05:16:06.078Z,8.80
2017-12-24T05:18:32.053Z,8.80
2017-12-24T05:20:58.030Z,8.90
2017-12-24T05:23:24.016Z,8.90
2017-12-24T05:25:49.948Z,8.90
2017-12-24T05:28:15.890Z,8.90
2017-12-24T05:30:41.881Z,8.90
2017-12-24T05:33:07.841Z,8.90
2017-12-24T05:35:33.831Z,8.90
2017-12-24T05:37:59.806Z,8.90
2017-12-24T05:40:25.789Z,8.90
2017-12-24T05:42:52.504Z,8.90
2017-12-24T05:45:18.446Z,8.90
2017-12-24T05:47:44.438Z,8.90
2017-12-24T05:50:10.428Z,8.90
2017-12-24T05:52:36.381Z,8.90
2017-12-24T05:55:03.100Z,9.00
2017-12-24T05:57:29.079Z,9.00
2017-12-24T05:59:55.784Z,9.10
2017-12-24T06:02:21.722Z,9.00
2017-12-24T06:04:47.692Z,9.10
2017-12-24T06:07:14.377Z,9.10
2017-12-24T06:09:40.377Z,9.10
2017-12-24T06:12:07.073Z,9.10
2017-12-24T06:14:33.009Z,9.10
2017-12-24T06:16:58.981Z,9.20
2017-12-24T06:19:24.956Z,9.20
2017-12-24T06:21:51.643Z,9.30
2017-12-24T06:24:17.576Z,9.20
2017-12-24T06:26:43.566Z,9.30
2017-12-24T06:29:10.327Z,9.30
2017-12-24T06:31:37.041Z,9.30
2017-12-24T06:34:02.980Z,9.30
2017-12-24T06:36:28.993Z,9.30
2017-12-24T06:38:54.950Z,9.40
2017-12-24T06:41:20.932Z,9.40
2017-12-24T06:43:46.875Z,9.40
2017-12-24T06:46:12.823Z,9.40
2017-12-24T06:48:38.830Z,9.40
2017-12-24T06:51:05.518Z,9.40
2017-12-24T06:53:31.511Z,9.40
2017-12-24T06:55:58.206Z,9.40
2017-12-24T06:58:24.144Z,9.40
2017-12-24T07:00:50.136Z,9.30
2017-12-24T07:03:16.820Z,9.40
2017-12-24T07:05:42.776Z,9.40
2017-12-24T07:08:08.859Z,9.50
2017-12-24T07:10:35.533Z,9.40
2017-12-24T07:13:01.465Z,9.40
2017-12-24T07:15:28.186Z,9.50
2017-12-24T07:17:54.138Z,9.40
2017-12-24T07:20:20.854Z,9.50
2017-12-24T07:22:46.809Z,9.40
2017-12-24T07:25:12.802Z,9.40
2017-12-24T07:27:38.879Z,9.50
2017-12-24T07:30:04.840Z,9.50
2017-12-24T07:32:31.574Z,9.40
2017-12-24T07:34:57.545Z,9.40
2017-12-24T07:37:23.489Z,9.40
2017-12-24T07:39:49.512Z,9.50
2017-12-24T07:42:15.458Z,9.50
2017-12-24T07:44:41.454Z,9.60
2017-12-24T07:47:08.200Z,9.60
2017-12-24T07:49:34.136Z,9.50
2017-12-24T07:52:00.078Z,9.50
2017-12-24T07:54:26.094Z,9.60
2017-12-24T07:56:52.060Z,9.60
2017-12-24T07:59:18.754Z,9.50
2017-12-24T08:01:44.730Z,9.60
2017-12-24T08:04:10.774Z,9.60
2017-12-24T08:06:36.722Z,9.70
2017-12-24T08:09:03.429Z,9.60
2017-12-24T08:11:29.382Z,9.60
2017-12-24T08:13:55.349Z,9.70
2017-12-24T08:16:22.042Z,9.60
2017-12-24T08:18:48.021Z,9.60
2017-12-24T08:21:13.978Z,9.70
2017-12-24T08:23:40.714Z,9.70
2017-12-24T08:26:06.664Z,9.70
2017-12-24T08:28:33.377Z,9.70
2017-12-24T08:30:59.328Z,9.70
2017-12-24T08:33:25.308Z,9.70
2017-12-24T08:35:51.253Z,9.70
2017-12-24T08:38:17.256Z,9.70
2017-12-24T08:40:43.958Z,9.70
2017-12-24T08:43:09.937Z,9.70
2017-12-24T08:45:35.929Z,9.80
2017-12-24T08:48:01.910Z,9.80
2017-12-24T08:50:27.872Z,9.80
2017-12-24T08:52:53.850Z,9.80
2017-12-24T08:55:19.826Z,9.90
2017-12-24T08:57:46.511Z,9.90
2017-12-24T09:00:12.537Z,9.90
2017-12-24T09:02:38.519Z,9.80
2017-12-24T09:05:04.470Z,9.80
2017-12-24T09:07:30.446Z,9.80
2017-12-24T09:09:56.410Z,9.80
2017-12-24T09:12:22.370Z,9.80
2017-12-24T09:14:48.369Z,9.80
2017-12-24T09:17:14.322Z,9.80
2017-12-24T09:19:40.312Z,9.80
2017-12-24T09:22:06.321Z,9.90
2017-12-24T09:24:32.269Z,9.90
2017-12-24T09:26:59.140Z,10.00
2017-12-24T09:29:25.890Z,10.00
2017-12-24T09:31:52.582Z,9.90
2017-12-24T09:34:18.539Z,9.90
2017-12-24T09:36:44.586Z,9.90
2017-12-24T09:39:11.402Z,9.90
2017-12-24T09:41:37.389Z,9.90
2017-12-24T09:44:03.349Z,9.90
2017-12-24T09:46:29.330Z,9.90
2017-12-24T09:48:55.265Z,9.90
2017-12-24T09:51:21.218Z,9.90
2017-12-24T09:53:47.187Z,9.90
2017-12-24T09:56:14.023Z,10.00
2017-12-24T09:58:40.766Z,10.00
2017-12-24T10:01:06.704Z,10.00
2017-12-24T10:03:32.677Z,10.00
2017-12-24T10:05:58.630Z,9.90
2017-12-24T10:08:24.697Z,9.90
2017-12-24T10:10:50.641Z,10.00
2017-12-24T10:13:16.586Z,10.00
2017-12-24T10:15:42.590Z,10.00
2017-12-24T10:18:09.281Z,10.00
2017-12-24T10:20:35.960Z,10.00
2017-12-24T10:23:01.941Z,10.00
2017-12-24T10:25:27.889Z,10.10
2017-12-24T10:27:53.852Z,10.10
2017-12-24T10:30:20.558Z,10.20
2017-12-24T10:32:46.526Z,10.20
2017-12-24T10:35:12.474Z,10.30
2017-12-24T10:37:39.213Z,10.20
2017-12-24T10:40:05.238Z,10.20
2017-12-24T10:42:31.184Z,10.20
2017-12-24T10:44:57.180Z,10.10
2017-12-24T10:47:23.133Z,10.20
2017-12-24T10:49:49.123Z,10.20
2017-12-24T10:52:15.066Z,10.10
2017-12-24T10:54:41.009Z,10.10
2017-12-24T10:57:06.985Z,10.20
2017-12-24T10:59:32.925Z,10.20
2017-12-24T11:01:58.866Z,10.20
2017-12-24T11:04:24.869Z,10.30
2017-12-24T11:06:50.801Z,10.30
2017-12-24T11:09:16.769Z,10.40
2017-12-24T11:11:42.705Z,10.40
2017-12-24T11:14:08.673Z,10.50
2017-12-24T11:16:34.602Z,10.50
2017-12-24T11:19:00.586Z,10.40
2017-12-24T11:21:26.530Z,10.50
2017-12-24T11:23:52.471Z,10.60
2017-12-24T11:26:18.574Z,10.50
2017-12-24T11:28:44.539Z,10.40
2017-12-24T11:31:11.300Z,10.50
2017-12-24T11:33:37.286Z,10.50
2017-12-24T11:36:03.258Z,10.40
2017-12-24T11:38:29.981Z,10.50
2017-12-24T11:40:56.153Z,10.50
2017-12-24T11:43:22.093Z,10.60
2017-12-24T11:45:48.057Z,10.60
2017-12-24T11:48:14.830Z,10.70
2017-12-24T11:50:40.792Z,10.70
2017-12-24T11:53:06.729Z,10.80
2017-12-24T11:55:32.689Z,10.80
2017-12-24T11:57:58.666Z,10.70
2017-12-24T12:00:24.608Z,10.80
2017-12-24T12:02:50.590Z,10.80
2017-12-24T12:05:16.614Z,10.80
2017-12-24T12:07:42.603Z,10.90
2017-12-24T12:10:08.546Z,10.90
2017-12-24T12:12:34.490Z,10.90
2017-12-24T12:15:00.478Z,11.00
2017-12-24T12:17:26.416Z,11.00
2017-12-24T12:19:52.358Z,11.00
2017-12-24T12:22:18.329Z,11.10
2017-12-24T12:24:44.345Z,11.30
2017-12-24T12:27:11.046Z,11.30
2017-12-24T12:29:37.001Z,11.30
2017-12-24T12:32:02.995Z,11.30
2017-12-24T12:34:28.949Z,11.20
2017-12-24T12:36:54.885Z,11.00
2017-12-24T12:39:20.889Z,10.90
2017-12-24T12:41:46.867Z,10.90
2017-12-24T12:44:12.866Z,11.00
2017-12-24T12:46:38.856Z,10.90
2017-12-24T12:49:04.806Z,10.80
2017-12-24T12:51:30.857Z,10.80
2017-12-24T12:53:57.573Z,10.70
2017-12-24T12:56:23.552Z,10.70
2017-12-24T12:58:49.494Z,10.60
2017-12-24T13:01:15.482Z,10.70
2017-12-24T13:03:41.454Z,10.60
2017-12-24T13:06:08.231Z,10.60
2017-12-24T13:08:34.199Z,10.60
2017-12-24T13:11:00.209Z,10.60
2017-12-24T13:13:26.158Z,10.60
2017-12-24T13:15:52.150Z,10.60
2017-12-24T13:18:18.847Z,10.60
2017-12-24T13:20:44.814Z,10.60
2017-12-24T13:23:10.866Z,10.60
2017-12-24T13:25:37.559Z,10.40
2017-12-24T13:28:03.541Z,10.40
2017-12-24T13:30:29.485Z,10.40
2017-12-24T13:32:55.439Z,10.30
2017-12-24T13:35:22.150Z,10.40
2017-12-24T13:37:48.870Z,10.40
2017-12-24T13:40:14.878Z,10.40
2017-12-24T13:42:41.557Z,10.50
2017-12-24T13:45:07.525Z,10.50
2017-12-24T13:47:33.471Z,10.40
2017-12-24T13:49:59.444Z,10.30
2017-12-24T13:52:26.121Z,10.30
2017-12-24T13:54:52.069Z,10.30
2017-12-24T13:57:18.042Z,10.30
2017-12-24T13:59:45.485Z,10.30
2017-12-24T14:02:11.456Z,10.30
2017-12-24T14:04:38.153Z,10.30
2017-12-24T14:07:04.125Z,10.30
2017-12-24T14:09:30.084Z,10.30
2017-12-24T14:11:56.788Z,10.30
2017-12-24T14:14:22.724Z,10.30
2017-12-24T14:16:48.722Z,10.40
2017-12-24T14:19:15.420Z,10.40
2017-12-24T14:21:41.374Z,10.40
2017-12-24T14:24:07.358Z,10.40
2017-12-24T14:26:33.293Z,10.40
2017-12-24T14:28:59.265Z,10.30
2017-12-24T14:31:25.212Z,10.40
2017-12-24T14:33:51.155Z,10.30
2017-12-24T14:36:17.130Z,10.20
2017-12-24T14:38:43.126Z,10.20
2017-12-24T14:41:09.129Z,10.20
2017-12-24T14:43:35.064Z,10.20
2017-12-24T14:46:01.057Z,10.20
2017-12-24T14:48:27.736Z,10.20
2017-12-24T14:50:53.674Z,10.20
2017-12-24T14:53:19.634Z,10.10
2017-12-24T14:55:45.590Z,10.10
2017-12-24T14:58:11.558Z,10.20
2017-12-24T15:00:38.238Z,10.20
2017-12-24T15:03:04.204Z,10.20
2017-12-24T15:05:30.283Z,10.20
2017-12-24T15:07:56.250Z,10.20
2017-12-24T15:10:22.181Z,10.20
2017-12-24T15:12:48.163Z,10.20
2017-12-24T15:15:14.176Z,10.10
2017-12-24T15:17:40.118Z,10.10
2017-12-24T15:20:06.062Z,10.10
2017-12-24T15:22:32.029Z,10.10
2017-12-24T15:24:58.704Z,10.00
2017-12-24T15:27:24.680Z,10.00
2017-12-24T15:29:50.654Z,10.00
2017-12-24T15:32:17.368Z,10.00
2017-12-24T15:34:43.476Z,10.00
2017-12-24T15:37:09.421Z,10.10
2017-12-24T15:39:35.357Z,10.10
2017-12-24T15:42:01.393Z,10.10
2017-12-24T15:44:27.334Z,10.10
2017-12-24T15:46:53.274Z,10.00
2017-12-24T15:49:19.259Z,10.00
2017-12-24T15:51:45.958Z,10.00
2017-12-24T15:54:11.924Z,10.00
2017-12-24T15:56:37.869Z,9.90
2017-12-24T15:59:04.577Z,10.00
2017-12-24T16:01:30.566Z,10.00
2017-12-24T16:03:57.244Z,9.80
2017-12-24T16:06:23.216Z,9.80
2017-12-24T16:08:49.162Z,9.80
2017-12-24T16:11:15.130Z,9.80
2017-12-24T16:13:41.862Z,9.80
2017-12-24T16:16:07.820Z,9.80
2017-12-24T16:18:34.502Z,9.80
2017-12-24T16:21:00.555Z,9.80
2017-12-24T16:23:26.498Z,9.80
2017-12-24T16:25:52.483Z,9.80
2017-12-24T16:28:19.157Z,9.80
2017-12-24T16:30:45.121Z,9.80
2017-12-24T16:33:11.114Z,9.90
2017-12-24T16:35:37.059Z,9.90
2017-12-24T16:38:03.020Z,9.90
2017-12-24T16:40:29.006Z,9.80
2017-12-24T16:42:55.681Z,9.80
2017-12-24T16:45:21.642Z,9.80
2017-12-24T16:47:47.668Z,9.80
2017-12-24T16:50:13.646Z,9.70
2017-12-24T16:52:39.586Z,9.80
2017-12-24T16:55:05.554Z,9.80
2017-12-24T16:57:31.496Z,9.70
2017-12-24T16:59:57.470Z,9.70
2017-12-24T17:02:23.406Z,9.70
2017-12-24T17:04:49.387Z,9.70
2017-12-24T17:07:15.341Z,9.60
2017-12-24T17:09:41.268Z,9.60
2017-12-24T17:12:07.233Z,9.60
2017-12-24T17:14:33.170Z,9.70
2017-12-24T17:17:06.165Z,9.70
2017-12-24T17:19:32.115Z,9.70
2017-12-24T17:21:58.053Z,9.70
2017-12-24T17:24:24.024Z,9.70
2017-12-24T17:26:49.977Z,9.70
2017-12-24T17:29:15.978Z,9.70
2017-12-24T17:31:41.949Z,9.70
2017-12-24T17:34:07.938Z,9.70
2017-12-24T17:36:33.876Z,9.70
2017-12-24T17:38:59.812Z,9.70
2017-12-24T17:41:25.817Z,9.70
2017-12-24T17:43:51.791Z,9.70
2017-12-24T17:46:17.744Z,9.60
2017-12-24T17:48:44.502Z,9.70
2017-12-24T17:51:11.181Z,9.70
2017-12-24T17:53:37.118Z,9.70
2017-12-24T17:56:03.161Z,9.70
2017-12-24T17:58:29.093Z,9.80
2017-12-24T18:00:55.030Z,9.80
2017-12-24T18:03:21.016Z,9.70
2017-12-24T18:05:46.979Z,9.80
2017-12-24T18:08:12.937Z,9.80
2017-12-24T18:10:38.970Z,9.80
2017-12-24T18:13:04.907Z,9.70
2017-12-24T18:15:30.908Z,9.70
2017-12-24T18:17:57.746Z,9.60
2017-12-24T18:20:23.727Z,9.60
2017-12-24T18:22:49.670Z,9.70
2017-12-24T18:25:15.674Z,9.70
2017-12-24T18:27:42.370Z,9.70
2017-12-24T18:30:08.322Z,9.70
2017-12-24T18:32:34.290Z,9.70
2017-12-24T18:35:00.282Z,9.70
2017-12-24T18:37:26.969Z,9.80
2017-12-24T18:39:52.966Z,9.80
2017-12-24T18:42:18.899Z,9.80
2017-12-24T18:44:44.901Z,9.80
2017-12-24T18:47:11.622Z,9.70
2017-12-24T18:49:37.562Z,9.70
2017-12-24T18:52:04.552Z,9.70
2017-12-24T18:54:31.245Z,9.70
2017-12-24T18:56:57.222Z,9.70
2017-12-24T18:59:23.211Z,9.70
2017-12-24T19:01:49.193Z,9.60
2017-12-24T19:04:15.159Z,9.70
2017-12-24T19:06:41.146Z,9.80
2017-12-24T19:09:07.999Z,9.70
2017-12-24T19:11:33.935Z,9.60
2017-12-24T19:13:59.894Z,9.60
2017-12-24T19:16:25.858Z,9.70
2017-12-24T19:18:51.867Z,9.70
2017-12-24T19:21:18.635Z,9.70
2017-12-24T19:23:45.394Z,9.70
2017-12-24T19:26:12.110Z,9.80
2017-12-24T19:28:38.103Z,9.70
2017-12-24T19:31:04.095Z,9.80
2017-12-24T19:33:30.782Z,9.70
2017-12-24T19:35:56.894Z,9.70
2017-12-24T19:38:23.630Z,9.80
2017-12-24T19:40:49.609Z,9.80
2017-12-24T19:43:15.608Z,9.90
2017-12-24T19:45:41.601Z,9.90
2017-12-24T19:48:07.602Z,9.80
2017-12-24T19:50:33.609Z,9.80
2017-12-24T19:52:59.547Z,9.80
2017-12-24T19:55:32.651Z,9.80
2017-12-24T19:57:58.697Z,9.90
2017-12-24T20:00:24.652Z,9.90
2017-12-24T20:02:51.349Z,9.90
2017-12-24T20:05:17.364Z,9.90
2017-12-24T20:07:43.369Z,9.80
2017-12-24T20:10:10.148Z,9.90
2017-12-24T20:12:36.143Z,9.80
2017-12-24T20:15:02.177Z,9.90
2017-12-24T20:17:28.164Z,9.90
2017-12-24T20:19:54.162Z,9.90
2017-12-24T20:22:20.184Z,9.90
2017-12-24T20:24:46.204Z,9.90
2017-12-24T20:27:12.142Z,9.90
2017-12-24T20:29:38.178Z,9.90
2017-12-24T20:32:04.175Z,9.90
2017-12-24T20:34:30.147Z,9.90
2017-12-24T20:36:56.248Z,9.90
2017-12-24T20:39:22.224Z,10.00
2017-12-24T20:41:48.283Z,10.00
2017-12-24T20:44:14.225Z,10.00
2017-12-24T20:46:40.257Z,10.00
2017-12-24T20:49:06.201Z,10.00
2017-12-24T20:51:32.218Z,9.90
2017-12-24T20:53:58.222Z,9.90
2017-12-24T20:56:24.230Z,9.90
2017-12-24T20:58:50.988Z,9.90
2017-12-24T21:01:16.928Z,9.90
2017-12-24T21:03:42.940Z,9.90
2017-12-24T21:06:08.963Z,9.90
2017-12-24T21:08:34.962Z,9.90
2017-12-24T21:11:00.983Z,9.90
2017-12-24T21:13:26.967Z,9.90
2017-12-24T21:15:52.984Z,9.90
2017-12-24T21:18:18.988Z,9.90
2017-12-24T21:20:45.006Z,9.80
2017-12-24T21:23:11.770Z,9.80
2017-12-24T21:25:38.552Z,9.80
2017-12-24T21:28:04.534Z,9.80
2017-12-24T21:30:30.522Z,9.80
2017-12-24T21:32:56.529Z,9.80
2017-12-24T21:35:23.303Z,9.80
2017-12-24T21:37:49.286Z,9.80
2017-12-24T21:40:15.321Z,9.80
2017-12-24T21:42:41.265Z,9.80
2017-12-24T21:45:07.343Z,9.80
2017-12-24T21:47:33.332Z,9.80
2017-12-24T21:49:59.329Z,9.80
2017-12-24T21:52:26.118Z,9.80
2017-12-24T21:54:52.136Z,9.80
2017-12-24T21:57:18.124Z,9.80
2017-12-24T21:59:44.900Z,9.70
2017-12-24T22:02:10.884Z,9.70
2017-12-24T22:04:36.917Z,9.80
2017-12-24T22:07:02.952Z,9.70
2017-12-24T22:09:28.972Z,9.70
2017-12-24T22:11:54.969Z,9.70
2017-12-24T22:14:21.732Z,9.70
2017-12-24T22:16:47.710Z,9.70
2017-12-24T22:19:13.739Z,9.70
2017-12-24T22:21:39.690Z,9.80
2017-12-24T22:24:05.667Z,9.80
2017-12-24T22:26:32.431Z,9.80
2017-12-24T22:28:58.411Z,9.80
2017-12-24T22:31:24.430Z,9.80
2017-12-24T22:33:50.512Z,9.80
2017-12-24T22:36:16.466Z,9.80
2017-12-24T22:38:43.246Z,9.80
2017-12-24T22:41:09.224Z,9.80
2017-12-24T22:43:35.284Z,9.80
2017-12-24T22:46:01.304Z,9.80
2017-12-24T22:48:27.245Z,9.80
2017-12-24T22:50:53.250Z,9.80
2017-12-24T22:53:19.206Z,9.70
2017-12-24T22:55:45.191Z,9.70
2017-12-24T22:58:11.219Z,9.70
2017-12-24T23:00:37.944Z,9.80
2017-12-24T23:03:03.965Z,9.80
2017-12-24T23:05:29.989Z,9.80
2017-12-24T23:07:56.009Z,9.80
2017-12-24T23:10:22.075Z,9.80
2017-12-24T23:12:48.062Z,9.80
2017-12-24T23:15:14.042Z,9.80
2017-12-24T23:17:40.062Z,9.80
2017-12-24T23:20:06.051Z,9.70
2017-12-24T23:22:32.021Z,9.70
2017-12-24T23:24:57.952Z,9.60
2017-12-24T23:27:23.980Z,9.70
2017-12-24T23:29:50.014Z,9.70
2017-12-24T23:32:16.008Z,9.70
2017-12-24T23:34:41.992Z,9.70
2017-12-24T23:37:08.036Z,9.70
2017-12-24T23:39:33.973Z,9.70
2017-12-24T23:41:59.997Z,9.70
2017-12-24T23:44:25.964Z,9.70
2017-12-24T23:46:52.000Z,9.70
2017-12-24T23:49:18.007Z,9.70
2017-12-24T23:51:43.982Z,9.70
2017-12-24T23:54:09.940Z,9.70
2017-12-24T23:56:35.883Z,9.70
2017-12-24T23:59:01.920Z,9.70
